Time;durP1;ratioP1;P1;durP2;ratioP2;P2;SDS_P1;SDS_P2;PMS_P1;PMS_P2;Temp;Humidity;BMP_temperature;BMP_pressure;BME280_temperature;BME280_humidity;BME280_pressure;Samples;Min_cycle;Max_cycle;Signal;HPM_P1;HPM_P2
2023/05/08 00:01:55;;;;;;;;;17.50;16.50;;;;;14.95;76.33;100272.47;5115952;28;8812;-62
2023/05/08 00:04:22;;;;;;;;;13.00;11.25;;;;;14.94;76.59;100272.63;5116240;28;8843;-62
2023/05/08 00:06:51;;;;;;;;;22.00;18.50;;;;;14.93;76.54;100273.59;5115837;28;8954;-61
2023/05/08 00:09:19;;;;;;;;;18.00;15.50;;;;;14.91;76.54;100275.59;5115607;28;8812;-62
2023/05/08 00:11:47;;;;;;;;;17.50;16.00;;;;;14.88;76.33;100279.38;5115283;28;8820;-60
2023/05/08 00:14:14;;;;;;;;;17.00;15.00;;;;;14.88;76.85;100271.34;5115011;28;8836;-61
2023/05/08 00:16:42;;;;;;;;;20.50;18.00;;;;;14.88;76.69;100278.56;5115001;28;8804;-60
2023/05/08 00:19:10;;;;;;;;;15.75;15.00;;;;;14.86;76.31;100283.22;5115872;28;8840;-61
2023/05/08 00:21:38;;;;;;;;;23.75;17.25;;;;;14.84;76.26;100286.03;5116018;28;8847;-62
2023/05/08 00:24:06;;;;;;;;;22.75;20.50;;;;;14.83;76.61;100288.84;5116484;28;8848;-60
2023/05/08 00:26:34;;;;;;;;;15.75;13.00;;;;;14.81;76.80;100285.47;5115098;28;8852;-62
2023/05/08 00:29:01;;;;;;;;;25.00;20.75;;;;;14.79;77.01;100277.56;5115185;28;8838;-61
2023/05/08 00:31:32;;;;;;;;;24.25;23.25;;;;;14.79;76.96;100277.56;5116361;28;8877;-60
2023/05/08 00:34:00;;;;;;;;;22.25;20.50;;;;;14.80;76.75;100284.59;5115546;28;8856;-60
2023/05/08 00:36:28;;;;;;;;;21.25;17.50;;;;;14.82;76.47;100289.84;5115711;28;8820;-60
2023/05/08 00:38:55;;;;;;;;;14.50;12.50;;;;;14.85;76.03;100282.38;5116355;28;8832;-60
2023/05/08 00:41:23;;;;;;;;;18.25;15.00;;;;;14.87;76.74;100287.59;5119222;28;9641;-60
2023/05/08 00:43:51;;;;;;;;;16.50;16.00;;;;;14.86;76.72;100284.06;5118778;28;8820;-61
2023/05/08 00:46:18;;;;;;;;;18.50;15.50;;;;;14.86;76.54;100288.59;5118567;28;8909;-62
2023/05/08 00:48:47;;;;;;;;;15.50;14.50;;;;;14.84;76.71;100286.03;5118452;28;8852;-62
2023/05/08 00:51:14;;;;;;;;;17.75;16.00;;;;;14.83;76.95;100289.72;5118678;28;8859;-60
2023/05/08 00:53:44;;;;;;;;;15.00;13.00;;;;;14.82;76.34;100289.84;5118871;28;8942;-60
2023/05/08 00:56:11;;;;;;;;;13.00;12.25;;;;;14.80;76.77;100291.81;5119163;28;8958;-63
2023/05/08 00:58:39;;;;;;;;;19.75;17.50;;;;;14.78;76.53;100291.97;5118396;28;8820;-63
2023/05/08 01:01:08;;;;;;;;;18.50;17.25;;;;;14.78;76.83;100289.28;5118309;28;8839;-61
2023/05/08 01:03:36;;;;;;;;;20.00;18.50;;;;;14.79;76.92;100282.09;5117876;28;8842;-61
2023/05/08 01:06:05;;;;;;;;;20.25;18.50;;;;;14.79;76.33;100287.47;5118377;28;8865;-60
2023/05/08 01:08:33;;;;;;;;;20.25;19.00;;;;;14.78;76.91;100288.41;5118398;28;8830;-62
2023/05/08 01:11:00;;;;;;;;;18.25;16.75;;;;;14.76;76.33;100291.25;5118653;28;8901;-62
2023/05/08 01:13:28;;;;;;;;;13.25;12.50;;;;;14.76;76.79;100285.03;5118136;28;8832;-62
2023/05/08 01:15:56;;;;;;;;;20.00;18.00;;;;;14.74;76.61;100285.19;5118268;28;8823;-62
2023/05/08 01:18:24;;;;;;;;;21.00;18.00;;;;;14.72;76.46;100284.47;5118639;28;8962;-61
2023/05/08 01:20:51;;;;;;;;;21.25;19.00;;;;;14.72;76.83;100286.31;5118912;28;9586;-62
2023/05/08 01:23:19;;;;;;;;;18.25;16.50;;;;;14.70;76.41;100283.78;5118363;28;8843;-61
2023/05/08 01:25:47;;;;;;;;;20.50;18.00;;;;;14.69;77.10;100286.56;5118608;28;8867;-61
2023/05/08 01:28:15;;;;;;;;;11.50;10.50;;;;;14.68;76.94;100279.53;5118675;28;8847;-60
2023/05/08 01:30:42;;;;;;;;;15.50;15.25;;;;;14.68;76.28;100287.56;5118882;28;9568;-61
2023/05/08 01:33:10;;;;;;;;;19.50;18.00;;;;;14.68;76.98;100283.06;5117376;28;8828;-61
2023/05/08 01:35:38;;;;;;;;;16.50;14.75;;;;;14.67;76.62;100291.25;5117771;28;8867;-60
2023/05/08 01:38:06;;;;;;;;;21.50;19.00;;;;;14.66;76.78;100294.91;5117986;28;8897;-60
2023/05/08 01:40:33;;;;;;;;;15.25;12.75;;;;;14.64;76.68;100287.00;5118822;28;8897;-61
2023/05/08 01:43:01;;;;;;;;;21.25;19.50;;;;;14.64;76.86;100295.03;5118391;28;8811;-61
2023/05/08 01:45:29;;;;;;;;;20.75;20.00;;;;;14.64;76.99;100295.03;5119032;28;8827;-59
2023/05/08 01:47:56;;;;;;;;;21.50;20.00;;;;;14.63;76.81;100293.34;5118066;28;8844;-60
2023/05/08 01:50:24;;;;;;;;;24.50;20.00;;;;;14.63;76.80;100297.88;5118115;28;8831;-59
2023/05/08 01:52:52;;;;;;;;;21.75;19.50;;;;;14.63;76.89;100287.16;5118199;28;8889;-58
2023/05/08 01:55:20;;;;;;;;;22.50;20.50;;;;;14.63;77.34;100296.03;5117937;28;8924;-60
2023/05/08 01:57:47;;;;;;;;;22.00;20.50;;;;;14.62;76.60;100291.66;5117966;28;8991;-60
2023/05/08 02:00:15;;;;;;;;;24.50;19.75;;;;;14.63;77.01;100298.72;5117777;28;8823;-60
2023/05/08 02:02:43;;;;;;;;;23.50;22.25;;;;;14.64;76.71;100294.22;5117157;28;8936;-61
2023/05/08 02:05:11;;;;;;;;;20.75;20.00;;;;;14.65;76.69;100298.59;5117541;28;8929;-60
2023/05/08 02:07:38;;;;;;;;;19.00;19.00;;;;;14.68;76.24;100298.28;5117219;28;8947;-60
2023/05/08 02:10:06;;;;;;;;;20.75;19.00;;;;;14.69;76.41;100294.63;5117256;28;8844;-60
2023/05/08 02:12:34;;;;;;;;;22.00;19.00;;;;;14.70;76.09;100304.34;5117573;28;8823;-60
2023/05/08 02:15:02;;;;;;;;;18.75;18.00;;;;;14.69;76.38;100294.63;5117294;28;8854;-60
2023/05/08 02:17:29;;;;;;;;;17.50;16.50;;;;;14.69;76.67;100297.31;5117266;28;8816;-60
2023/05/08 02:19:57;;;;;;;;;21.25;19.50;;;;;14.67;77.03;100299.28;5116643;28;9593;-60
2023/05/08 02:22:25;;;;;;;;;20.50;17.50;;;;;14.64;77.04;100304.94;5117119;28;8832;-60
2023/05/08 02:24:54;;;;;;;;;16.50;15.75;;;;;14.61;77.37;100297.16;5117005;28;8820;-61
2023/05/08 02:27:22;;;;;;;;;12.25;9.25;;;;;14.60;77.26;100300.81;5117961;28;8823;-60
2023/05/08 02:29:50;;;;;;;;;15.50;13.00;;;;;14.59;76.52;100297.31;5117612;28;8836;-59
2023/05/08 02:32:17;;;;;;;;;12.50;8.50;;;;;14.60;77.25;100300.81;5117253;28;8850;-60
2023/05/08 02:34:45;;;;;;;;;18.75;17.50;;;;;14.59;76.94;100302.66;5115527;28;8882;-61
2023/05/08 02:37:28;;;;;;;;;20.00;18.75;;;;;14.59;77.14;100301.81;5117077;28;8820;-60
2023/05/08 02:39:56;;;;;;;;;15.50;12.25;;;;;14.59;77.09;100296.44;5117551;28;8835;-60
2023/05/08 02:42:23;;;;;;;;;21.75;19.00;;;;;14.58;76.75;100300.94;5116973;28;8832;-62
2023/05/08 02:44:51;;;;;;;;;14.25;13.00;;;;;14.58;77.12;100295.59;5117790;28;8827;-61
2023/05/08 02:47:19;;;;;;;;;20.75;20.00;;;;;14.59;76.85;100296.44;5116895;28;8951;-62
2023/05/08 02:49:47;;;;;;;;;20.25;18.00;;;;;14.59;77.15;100302.66;5116087;28;8951;-62
2023/05/08 02:52:15;;;;;;;;;18.50;18.50;;;;;14.58;76.90;100300.13;5116263;28;9537;-62
2023/05/08 02:54:43;;;;;;;;;25.00;21.25;;;;;14.58;77.12;100294.75;5116493;28;8828;-61
2023/05/08 02:57:11;;;;;;;;;26.25;22.75;;;;;14.59;76.96;100296.44;5116973;28;8820;-60
2023/05/08 02:59:38;;;;;;;;;22.50;21.25;;;;;14.58;76.70;100297.44;5116708;28;8835;-61
2023/05/08 03:02:06;;;;;;;;;23.00;22.75;;;;;14.57;76.73;100298.44;5115872;28;8819;-63
2023/05/08 03:04:34;;;;;;;;;24.00;19.50;;;;;14.57;77.32;100290.38;5116352;28;8836;-60
2023/05/08 03:07:01;;;;;;;;;23.50;19.50;;;;;14.57;77.02;100293.91;5116554;28;8906;-61
2023/05/08 03:09:29;;;;;;;;;21.00;19.00;;;;;14.56;76.80;100292.22;5117117;28;9489;-62
2023/05/08 03:11:57;;;;;;;;;28.25;23.50;;;;;14.57;77.14;100293.06;5116493;28;8824;-62
2023/05/08 03:14:24;;;;;;;;;26.25;20.50;;;;;14.57;76.84;100298.44;5115523;28;8824;-61
2023/05/08 03:16:52;;;;;;;;;25.00;24.75;;;;;14.56;77.18;100296.75;5115690;28;8925;-62
2023/05/08 03:19:20;;;;;;;;;20.75;17.75;;;;;14.56;76.50;100291.38;5115958;28;8843;-60
2023/05/08 03:21:49;;;;;;;;;23.00;18.75;;;;;14.55;77.32;100289.66;5116484;28;8844;-61
2023/05/08 03:24:17;;;;;;;;;25.00;24.00;;;;;14.56;77.27;100294.88;5116651;28;9481;-62
2023/05/08 03:26:44;;;;;;;;;19.50;18.25;;;;;14.56;77.39;100292.22;5116153;28;8820;-60
2023/05/08 03:29:12;;;;;;;;;22.50;19.25;;;;;14.57;77.23;100299.25;5116293;28;9489;-60
2023/05/08 03:31:40;;;;;;;;;22.75;21.50;;;;;14.57;76.62;100303.78;5115886;28;8906;-62
2023/05/08 03:34:08;;;;;;;;;19.50;17.00;;;;;14.58;76.78;100300.13;5115968;28;8848;-61
2023/05/08 03:36:35;;;;;;;;;18.50;16.00;;;;;14.57;76.71;100293.91;5116322;28;8882;-62
2023/05/08 03:39:03;;;;;;;;;22.00;19.00;;;;;14.59;77.23;100296.44;5116383;28;9516;-61
2023/05/08 03:41:31;;;;;;;;;21.00;14.50;;;;;14.58;76.57;100294.75;5115311;28;8847;-62
2023/05/08 03:43:59;;;;;;;;;13.00;12.00;;;;;14.59;76.70;100302.66;5115588;28;8819;-60
2023/05/08 03:46:26;;;;;;;;;22.25;19.00;;;;;14.59;76.71;100299.13;5115302;28;8847;-59
2023/05/08 03:48:54;;;;;;;;;7.50;7.00;;;;;14.60;76.78;100295.47;5115335;28;8861;-59
2023/05/08 03:51:21;;;;;;;;;12.50;12.00;;;;;14.61;76.33;100294.47;5115117;28;8856;-60
2023/05/08 03:53:50;;;;;;;;;12.50;11.75;;;;;14.63;77.05;100297.88;5115862;28;8834;-60
2023/05/08 03:56:17;;;;;;;;;16.00;14.50;;;;;14.63;76.85;100300.56;5115372;28;8844;-60
2023/05/08 03:58:45;;;;;;;;;12.50;11.75;;;;;14.64;76.49;100302.25;5114702;28;8823;-59
2023/05/08 04:01:12;;;;;;;;;12.75;12.50;;;;;14.65;77.06;100301.25;5114887;28;8897;-61
2023/05/08 04:03:40;;;;;;;;;15.50;12.75;;;;;14.65;77.04;100301.25;5115731;28;8842;-60
2023/05/08 04:06:08;;;;;;;;;16.00;15.00;;;;;14.65;76.56;100306.63;5115637;28;8836;-62
2023/05/08 04:08:36;;;;;;;;;14.75;13.50;;;;;14.65;77.01;100302.09;5115724;28;8843;-60
2023/05/08 04:11:03;;;;;;;;;16.50;15.25;;;;;14.64;76.33;100305.75;5115802;28;9478;-60
2023/05/08 04:13:31;;;;;;;;;21.25;17.00;;;;;14.64;76.66;100302.25;5117681;28;8808;-60
2023/05/08 04:16:00;;;;;;;;;10.00;9.00;;;;;14.63;76.72;100298.72;5119275;28;8858;-61
2023/05/08 04:18:28;;;;;;;;;17.00;15.00;;;;;14.63;77.25;100297.88;5119218;28;8850;-61
2023/05/08 04:20:56;;;;;;;;;14.50;13.00;;;;;14.62;77.11;100302.38;5119425;28;8835;-61
2023/05/08 04:23:23;;;;;;;;;19.00;15.00;;;;;14.61;76.78;100299.81;5119407;28;9521;-60
2023/05/08 04:25:51;;;;;;;;;18.50;17.00;;;;;14.61;77.24;100302.50;5119364;28;8830;-60
2023/05/08 04:28:19;;;;;;;;;19.50;18.50;;;;;14.64;76.79;100310.28;5119294;28;9536;-61
2023/05/08 04:30:46;;;;;;;;;15.00;13.00;;;;;14.64;76.82;100307.63;5119113;28;8816;-60
2023/05/08 04:33:14;;;;;;;;;17.50;15.25;;;;;14.65;76.98;100301.25;5119318;28;8828;-59
2023/05/08 04:35:42;;;;;;;;;16.00;15.25;;;;;14.67;76.69;100307.31;5118743;28;8856;-62
2023/05/08 04:38:09;;;;;;;;;18.50;15.00;;;;;14.68;76.89;100314.38;5119366;28;9493;-60
2023/05/08 04:40:37;;;;;;;;;21.75;18.00;;;;;14.69;77.05;100311.56;5118860;28;8848;-61
2023/05/08 04:43:05;;;;;;;;;15.00;14.75;;;;;14.72;76.74;100319.31;5119377;28;8824;-62
2023/05/08 04:45:33;;;;;;;;;17.25;16.50;;;;;14.75;77.15;100321.75;5119016;28;9582;-59
2023/05/08 04:48:01;;;;;;;;;21.25;19.00;;;;;14.79;76.54;100316.94;5119024;28;8828;-59
2023/05/08 04:50:29;;;;;;;;;16.00;15.50;;;;;14.81;77.04;100323.00;5118890;28;8962;-62
2023/05/08 04:52:57;;;;;;;;;18.50;14.75;;;;;14.80;77.02;100315.97;5118809;28;8851;-61
2023/05/08 04:55:25;;;;;;;;;12.50;11.00;;;;;14.82;76.56;100314.84;5119359;28;8832;-61
2023/05/08 04:57:53;;;;;;;;;18.50;15.00;;;;;14.84;76.40;100323.56;5118955;28;8916;-61
2023/05/08 05:00:21;;;;;;;;;11.00;7.50;;;;;14.87;76.54;100327.81;5119124;28;8828;-61
2023/05/08 05:02:48;;;;;;;;;21.00;20.00;;;;;14.88;76.48;100324.16;5118587;28;8858;-61
2023/05/08 05:05:16;;;;;;;;;14.00;13.00;;;;;14.91;76.87;100329.22;5118447;28;8835;-61
2023/05/08 05:07:44;;;;;;;;;18.75;17.00;;;;;14.94;76.50;100331.66;5118773;28;8827;-60
2023/05/08 05:10:12;;;;;;;;;16.50;15.25;;;;;14.96;76.79;100327.81;5118255;28;8845;-61
2023/05/08 05:12:39;;;;;;;;;18.00;15.75;;;;;15.01;76.22;100330.09;5118229;28;8823;-59
2023/05/08 05:15:07;;;;;;;;;19.00;17.25;;;;;15.06;76.14;100330.50;5118083;28;8843;-61
2023/05/08 05:17:35;;;;;;;;;17.75;13.75;;;;;15.11;76.20;100337.13;5118476;28;8820;-61
2023/05/08 05:20:03;;;;;;;;;16.00;15.50;;;;;15.17;75.65;100343.78;5118339;28;8832;-61
2023/05/08 05:22:33;;;;;;;;;16.50;15.00;;;;;15.22;75.95;100334.31;5117713;28;8838;-61
2023/05/08 05:25:01;;;;;;;;;12.00;10.00;;;;;15.28;76.14;100344.50;5116134;28;8836;-61
2023/05/08 05:27:28;;;;;;;;;18.50;17.50;;;;;15.33;75.97;100341.41;5116670;28;8831;-61
2023/05/08 05:29:56;;;;;;;;;19.00;16.00;;;;;15.37;75.70;100346.34;5116163;28;8894;-61
2023/05/08 05:32:24;;;;;;;;;16.50;16.00;;;;;15.41;75.87;100341.53;5116391;28;8839;-61
2023/05/08 05:34:53;;;;;;;;;17.75;17.75;;;;;15.45;75.67;100346.47;5115494;28;8874;-59
2023/05/08 05:37:21;;;;;;;;;15.00;12.50;;;;;15.48;75.68;100343.50;5115688;28;9552;-59
2023/05/08 05:39:48;;;;;;;;;14.50;13.00;;;;;15.52;75.62;100336.88;5115848;28;8828;-59
2023/05/08 05:42:16;;;;;;;;;17.50;17.25;;;;;15.56;75.33;100349.00;5115825;28;8816;-60
2023/05/08 05:44:45;;;;;;;;;13.00;13.00;;;;;15.63;75.32;100344.75;5116600;28;9658;-62
2023/05/08 05:47:12;;;;;;;;;14.50;12.50;;;;;15.70;74.87;100339.66;5115978;28;8849;-60
2023/05/08 05:49:41;;;;;;;;;14.75;14.00;;;;;15.78;74.84;100347.84;5115530;28;8839;-61
2023/05/08 05:52:09;;;;;;;;;16.00;14.50;;;;;15.89;74.94;100353.91;5115542;28;8958;-62
2023/05/08 05:54:37;;;;;;;;;16.50;14.50;;;;;16.00;74.88;100353.72;5114995;28;8827;-59
2023/05/08 05:57:06;;;;;;;;;10.75;9.75;;;;;16.11;74.15;100358.06;5115227;28;8939;-62
2023/05/08 05:59:34;;;;;;;;;9.25;7.00;;;;;16.17;74.32;100354.78;5115077;28;8866;-61
2023/05/08 06:02:02;;;;;;;;;15.25;12.25;;;;;16.23;73.83;100352.34;5114717;28;8891;-60
2023/05/08 06:04:30;;;;;;;;;13.00;13.00;;;;;16.31;74.15;100358.69;5113618;28;8852;-62
2023/05/08 06:06:58;;;;;;;;;15.75;14.50;;;;;16.40;74.10;100359.69;5112498;28;8844;-59
2023/05/08 06:09:27;;;;;;;;;15.75;13.00;;;;;16.44;73.91;100358.38;5112741;28;8973;-60
2023/05/08 06:11:56;;;;;;;;;13.25;13.00;;;;;16.49;73.68;100359.63;5113061;28;8844;-62
2023/05/08 06:14:24;;;;;;;;;14.00;12.75;;;;;16.57;73.81;100359.72;5113537;28;8884;-60
2023/05/08 06:16:52;;;;;;;;;17.00;15.00;;;;;16.65;73.39;100351.75;5114285;28;8870;-62
2023/05/08 06:19:23;;;;;;;;;15.75;15.75;;;;;16.72;73.43;100358.22;5114455;28;8970;-60
2023/05/08 06:21:51;;;;;;;;;19.00;15.50;;;;;16.80;73.61;100360.16;5115580;28;8842;-63
2023/05/08 06:24:19;;;;;;;;;17.75;13.50;;;;;16.82;73.21;100359.03;5115536;28;8847;-61
2023/05/08 06:26:46;;;;;;;;;16.50;14.50;;;;;16.85;73.31;100358.69;5116154;28;8897;-59
2023/05/08 06:29:15;;;;;;;;;5.50;4.00;;;;;16.87;73.41;100359.38;5116238;28;9505;-62
2023/05/08 06:31:43;;;;;;;;;16.00;14.00;;;;;16.91;73.58;100363.47;5115929;28;8820;-61
2023/05/08 06:34:11;;;;;;;;;16.00;16.00;;;;;16.95;73.25;100358.66;5115836;28;8920;-60
2023/05/08 06:36:39;;;;;;;;;9.00;7.00;;;;;17.01;72.71;100361.56;5115238;28;8870;-60
2023/05/08 06:39:07;;;;;;;;;17.00;14.40;;;;;17.08;72.83;100359.97;5115039;28;8848;-62
2023/05/08 06:41:35;;;;;;;;;12.00;10.80;;;;;17.14;73.27;100353.09;5114816;28;8832;-60
2023/05/08 06:44:03;;;;;;;;;12.40;11.60;;;;;17.20;73.19;100352.50;5116047;28;8828;-60
2023/05/08 06:46:31;;;;;;;;;10.40;9.60;;;;;17.25;72.59;100358.28;5114928;28;8851;-59
2023/05/08 06:48:59;;;;;;;;;14.80;14.20;;;;;17.31;73.11;100355.81;5114832;28;8852;-60
2023/05/08 06:51:28;;;;;;;;;10.40;10.00;;;;;17.34;72.88;100363.59;5115081;28;8831;-60
2023/05/08 06:53:55;;;;;;;;;13.80;12.00;;;;;17.39;72.56;100369.38;5115450;28;8854;-60
2023/05/08 06:56:23;;;;;;;;;13.40;10.80;;;;;17.41;72.73;100371.91;5114971;28;8840;-59
2023/05/08 06:58:51;;;;;;;;;7.80;7.00;;;;;17.39;72.93;100369.38;5115072;28;8855;-60
2023/05/08 07:01:34;;;;;;;;;12.60;12.00;;;;;17.40;72.72;100375.63;5115233;28;9525;-60
2023/05/08 07:04:04;;;;;;;;;9.00;7.00;;;;;17.44;72.69;100371.59;5114925;28;8836;-60
2023/05/08 07:06:32;;;;;;;;;12.20;10.80;;;;;17.50;72.89;100381.75;5114895;28;8896;-60
2023/05/08 07:09:00;;;;;;;;;14.40;13.00;;;;;17.56;72.87;100373.91;5114614;28;8838;-61
2023/05/08 07:11:28;;;;;;;;;9.40;7.80;;;;;17.58;73.03;100379.13;5114452;28;9546;-61
2023/05/08 07:13:56;;;;;;;;;9.40;8.60;;;;;17.64;72.50;100376.69;5114884;28;8840;-61
2023/05/08 07:16:24;;;;;;;;;13.00;12.40;;;;;17.71;72.36;100366.97;5114765;28;8843;-59
2023/05/08 07:18:52;;;;;;;;;5.20;4.40;;;;;17.79;72.43;100366.16;5115545;28;8920;-59
2023/05/08 07:21:21;;;;;;;;;9.80;9.80;;;;;17.83;72.04;100368.38;5119023;28;8832;-63
2023/05/08 07:23:50;;;;;;;;;11.80;9.80;;;;;17.88;72.09;100367.91;5118092;28;8840;-59
2023/05/08 07:26:18;;;;;;;;;13.40;13.40;;;;;17.91;72.16;100360.34;5114760;28;8850;-61
2023/05/08 07:28:46;;;;;;;;;12.00;9.00;;;;;17.93;72.01;100358.34;5113597;28;8928;-60
2023/05/08 07:31:14;;;;;;;;;12.20;12.20;;;;;17.96;72.36;100363.44;5113218;28;8966;-60
2023/05/08 07:33:42;;;;;;;;;12.60;12.00;;;;;17.99;72.39;100357.72;5113347;28;9530;-60
2023/05/08 07:36:10;;;;;;;;;14.20;12.60;;;;;18.02;72.32;100357.41;5113502;28;8966;-62
2023/05/08 07:38:38;;;;;;;;;13.20;12.80;;;;;18.06;72.41;100352.56;5114027;28;8970;-61
2023/05/08 07:41:06;;;;;;;;;13.40;10.80;;;;;18.09;72.26;100353.06;5114355;28;8831;-61
2023/05/08 07:43:34;;;;;;;;;9.80;9.00;;;;;18.15;71.95;100354.28;5115320;28;8870;-60
2023/05/08 07:46:02;;;;;;;;;14.20;11.60;;;;;18.22;72.17;100348.06;5114126;28;8981;-61
2023/05/08 07:48:30;;;;;;;;;13.80;12.60;;;;;18.29;71.83;100354.50;5115250;28;8832;-60
2023/05/08 07:50:58;;;;;;;;;10.80;10.80;;;;;18.37;71.67;100346.50;5118104;28;8842;-60
2023/05/08 07:53:26;;;;;;;;;12.60;12.00;;;;;18.43;71.71;100351.25;5117547;28;8847;-59
2023/05/08 07:55:54;;;;;;;;;11.80;9.40;;;;;18.51;71.55;100355.84;5116560;28;8839;-59
2023/05/08 07:58:22;;;;;;;;;15.60;13.60;;;;;18.59;71.41;100359.41;5117429;28;8840;-61
2023/05/08 08:00:50;;;;;;;;;19.20;14.20;;;;;18.69;71.52;100352.03;5117353;28;9794;-60
2023/05/08 08:03:18;;;;;;;;;15.20;13.20;;;;;18.79;71.04;100347.34;5117244;28;8849;-62
2023/05/08 08:05:46;;;;;;;;;14.80;13.40;;;;;18.88;70.54;100349.06;5116721;28;8874;-61
2023/05/08 08:08:14;;;;;;;;;11.80;10.80;;;;;18.99;70.70;100348.75;5116509;28;8842;-60
2023/05/08 08:10:42;;;;;;;;;12.80;12.80;;;;;19.10;71.10;100350.28;5117006;28;8940;-61
2023/05/08 08:13:10;;;;;;;;;15.80;14.00;;;;;19.20;70.32;100346.44;5117249;28;8835;-60
2023/05/08 08:15:38;;;;;;;;;11.20;7.60;;;;;19.32;70.31;100347.81;5116950;28;8966;-60
2023/05/08 08:18:06;;;;;;;;;7.00;5.40;;;;;19.40;70.26;100346.97;5117612;28;8858;-60
2023/05/08 08:20:34;;;;;;;;;16.40;13.40;;;;;19.46;70.04;100344.44;5118190;28;8831;-60
2023/05/08 08:23:03;;;;;;;;;13.00;12.00;;;;;19.51;70.04;100349.34;5118297;28;8857;-59
2023/05/08 08:25:31;;;;;;;;;12.20;11.40;;;;;19.57;69.93;100356.78;5118640;28;8843;-60
2023/05/08 08:27:58;;;;;;;;;14.80;13.00;;;;;19.62;70.12;100355.25;5117903;28;8832;-62
2023/05/08 08:30:26;;;;;;;;;13.00;11.00;;;;;19.64;70.05;100360.50;5117077;28;8823;-62
2023/05/08 08:32:54;;;;;;;;;13.00;13.00;;;;;19.62;70.13;100357.09;5116678;28;8859;-60
2023/05/08 08:35:28;;;;;;;;;12.80;11.40;;;;;19.60;70.39;100360.00;5116817;28;8848;-62
2023/05/08 08:37:56;;;;;;;;;11.00;11.00;;;;;19.57;70.55;100365.72;5117143;28;9543;-59
2023/05/08 08:40:23;;;;;;;;;9.60;9.60;;;;;19.56;70.40;100361.31;5117181;28;9651;-60
2023/05/08 08:42:51;;;;;;;;;9.80;9.00;;;;;19.56;70.32;100363.19;5117345;28;8933;-62
2023/05/08 08:45:19;;;;;;;;;12.20;11.00;;;;;19.55;70.57;100366.88;5117844;28;9524;-61
2023/05/08 08:47:47;;;;;;;;;9.60;8.80;;;;;19.53;70.65;100367.06;5118041;28;8897;-60
2023/05/08 08:50:15;;;;;;;;;7.60;7.60;;;;;19.50;70.62;100370.09;5118182;28;9497;-59
2023/05/08 08:52:43;;;;;;;;;9.40;9.20;;;;;19.50;70.91;100370.09;5117124;28;8824;-59
2023/05/08 08:55:12;;;;;;;;;15.80;14.40;;;;;19.48;71.15;100372.13;5117309;28;8836;-62
2023/05/08 08:57:40;;;;;;;;;10.60;10.60;;;;;19.46;70.79;100384.13;5116760;28;8854;-60
2023/05/08 09:00:09;;;;;;;;;11.80;11.00;;;;;19.43;71.38;100374.47;5115691;28;8832;-60
2023/05/08 09:02:37;;;;;;;;;13.20;11.00;;;;;19.41;71.19;100381.09;5117500;28;8812;-60
2023/05/08 09:05:05;;;;;;;;;11.00;11.00;;;;;19.36;71.26;100378.88;5116800;28;8851;-60
2023/05/08 09:07:33;;;;;;;;;10.60;9.60;;;;;19.31;71.53;100383.09;5116075;28;8840;-60
2023/05/08 09:10:01;;;;;;;;;11.00;10.20;;;;;19.25;71.57;100379.19;5116118;28;9513;-61
2023/05/08 09:12:30;;;;;;;;;12.60;11.20;;;;;19.16;71.99;100382.88;5116677;28;8858;-60
2023/05/08 09:14:58;;;;;;;;;10.00;8.00;;;;;19.07;72.25;100385.72;5115725;28;8844;-60
2023/05/08 09:17:25;;;;;;;;;14.00;14.00;;;;;19.00;72.03;100387.38;5115234;28;8823;-61
2023/05/08 09:19:53;;;;;;;;;11.00;10.80;;;;;18.96;72.26;100391.44;5115710;28;8836;-60
2023/05/08 09:22:23;;;;;;;;;11.60;11.20;;;;;18.91;72.23;100394.59;5116766;28;8842;-59
2023/05/08 09:24:52;;;;;;;;;10.00;7.00;;;;;18.91;72.27;100389.19;5116554;28;8844;-60
2023/05/08 09:27:19;;;;;;;;;12.40;10.60;;;;;18.88;72.38;100392.25;5117167;28;8819;-61
2023/05/08 09:29:47;;;;;;;;;7.80;7.80;;;;;18.87;72.18;100393.25;5117237;28;8839;-60
2023/05/08 09:32:15;;;;;;;;;13.60;12.80;;;;;18.87;72.49;100387.00;5116491;28;8840;-60
2023/05/08 09:34:44;;;;;;;;;9.20;8.00;;;;;18.85;72.36;100391.72;5115780;28;8872;-60
2023/05/08 09:37:12;;;;;;;;;11.00;10.20;;;;;18.88;72.36;100389.53;5115427;28;8839;-59
2023/05/08 09:39:42;;;;;;;;;14.00;13.00;;;;;18.98;72.09;100387.53;5115254;28;8842;-60
2023/05/08 09:42:09;;;;;;;;;10.00;9.00;;;;;19.06;71.83;100384.03;5115459;28;8836;-61
2023/05/08 09:44:38;;;;;;;;;14.20;11.80;;;;;19.15;71.53;100383.88;5114892;28;8835;-61
2023/05/08 09:47:06;;;;;;;;;10.00;10.00;;;;;19.28;71.81;100384.25;5115086;28;8847;-59
2023/05/08 09:49:34;;;;;;;;;11.20;10.00;;;;;19.44;71.13;100387.00;5115059;28;8820;-60
2023/05/08 09:52:02;;;;;;;;;9.60;9.60;;;;;19.61;70.74;100394.09;5116213;28;8855;-59
2023/05/08 09:54:30;;;;;;;;;10.80;10.20;;;;;19.68;70.46;100400.53;5116326;28;8835;-60
2023/05/08 09:56:57;;;;;;;;;8.00;6.60;;;;;19.66;70.94;100393.59;5116102;28;8827;-60
2023/05/08 09:59:26;;;;;;;;;6.20;5.40;;;;;19.62;70.53;100394.94;5115237;28;8852;-60
2023/05/08 10:01:54;;;;;;;;;7.00;7.00;;;;;19.59;70.67;100390.72;5116129;28;8820;-63
2023/05/08 10:04:22;;;;;;;;;8.00;7.40;;;;;19.65;70.57;100383.81;5116096;28;8864;-60
2023/05/08 10:06:50;;;;;;;;;7.40;7.40;;;;;19.77;70.62;100387.84;5116056;28;8935;-60
2023/05/08 10:09:20;;;;;;;;;7.40;5.00;;;;;19.85;69.97;100391.38;5116653;28;8843;-60
2023/05/08 10:11:50;;;;;;;;;8.00;8.00;;;;;19.92;70.06;100386.13;5115732;28;8835;-60
2023/05/08 10:14:19;;;;;;;;;8.40;8.00;;;;;19.95;70.01;100388.53;5115917;28;8824;-60
2023/05/08 10:16:47;;;;;;;;;12.60;11.00;;;;;19.93;70.12;100388.69;5113888;28;8828;-60
2023/05/08 10:19:15;;;;;;;;;9.60;9.60;;;;;19.89;69.95;100391.91;5113724;28;8843;-61
2023/05/08 10:21:44;;;;;;;;;9.60;8.00;;;;;19.76;70.41;100396.97;5113996;28;8944;-60
2023/05/08 10:24:12;;;;;;;;;9.20;9.20;;;;;19.68;70.65;100399.66;5114809;28;9513;-60
2023/05/08 10:26:40;;;;;;;;;8.80;8.40;;;;;19.62;70.49;100400.34;5113952;28;8839;-60
2023/05/08 10:29:20;;;;;;;;;11.00;10.00;;;;;19.54;70.94;100394.94;5113559;28;8891;-60
2023/05/08 10:31:48;;;;;;;;;10.80;10.00;;;;;19.47;70.88;100397.47;5114120;28;9746;-60
2023/05/08 10:34:16;;;;;;;;;13.00;11.20;;;;;19.45;70.96;100390.53;5113616;28;8878;-61
2023/05/08 10:36:45;;;;;;;;;10.80;8.00;;;;;19.42;71.14;100402.50;5113554;28;8831;-61
2023/05/08 10:39:13;;;;;;;;;9.20;8.60;;;;;19.41;71.14;100403.53;5113454;28;8913;-61
2023/05/08 10:41:41;;;;;;;;;7.60;6.60;;;;;19.40;71.02;100401.84;5113353;28;8843;-61
2023/05/08 10:44:09;;;;;;;;;3.60;3.60;;;;;19.39;71.15;100391.19;5113947;28;8851;-60
2023/05/08 10:46:37;;;;;;;;;8.80;8.20;;;;;19.38;70.91;100393.06;5113939;28;8842;-60
2023/05/08 10:49:06;;;;;;;;;8.20;7.20;;;;;19.38;71.03;100395.78;5114344;28;8920;-60
2023/05/08 10:51:34;;;;;;;;;9.80;9.40;;;;;19.40;71.22;100396.44;5114696;28;8974;-61
2023/05/08 10:54:02;;;;;;;;;6.20;6.20;;;;;19.40;71.04;100401.84;5114654;28;8890;-60
2023/05/08 10:56:30;;;;;;;;;6.20;5.40;;;;;19.37;70.68;100394.09;5114221;28;9731;-60
2023/05/08 10:58:58;;;;;;;;;9.80;7.60;;;;;19.32;71.37;100398.28;5114379;28;8910;-60
2023/05/08 11:01:26;;;;;;;;;9.80;8.00;;;;;19.26;71.55;100397.09;5113914;28;8970;-61
2023/05/08 11:03:55;;;;;;;;;11.00;8.40;;;;;19.26;71.74;100391.69;5113501;28;8848;-61
2023/05/08 11:06:23;;;;;;;;;8.80;8.00;;;;;19.30;71.16;100387.66;5112647;28;8849;-61
2023/05/08 11:08:53;;;;;;;;;10.00;8.20;;;;;19.33;71.00;100389.16;5112747;28;8858;-60
2023/05/08 11:11:22;;;;;;;;;7.00;5.20;;;;;19.34;70.98;100382.78;5113391;28;8839;-60
2023/05/08 11:13:51;;;;;;;;;9.60;9.60;;;;;19.32;71.14;100379.38;5113456;28;8919;-62
2023/05/08 11:16:18;;;;;;;;;8.40;8.40;;;;;19.31;71.39;100388.50;5114182;28;8958;-62
2023/05/08 11:18:47;;;;;;;;;10.60;9.80;;;;;19.34;71.49;100386.28;5115062;28;8835;-61
2023/05/08 11:21:16;;;;;;;;;8.20;8.20;;;;;19.36;70.63;100378.03;5114455;28;8832;-63
2023/05/08 11:23:44;;;;;;;;;11.40;10.20;;;;;19.39;70.90;100378.56;5114002;28;8889;-61